sensor_id;sensor_type;location;lat;lon;timestamp;pressure;altitude;pressure_sealevel;temperature;humidity
62059;BME280;48017;51.064;7.014;2022-11-15T00:02:17;100247.75;;;9.83;100.00
62059;BME280;48017;51.064;7.014;2022-11-15T00:04:43;100243.44;;;9.82;100.00
62059;BME280;48017;51.064;7.014;2022-11-15T00:07:08;100245.25;;;9.81;100.00
62059;BME280;48017;51.064;7.014;2022-11-15T00:09:33;100248.38;;;10.06;100.00
62059;BME280;48017;51.064;7.014;2022-11-15T00:11:58;100249.88;;;9.99;100.00
62059;BME280;48017;51.064;7.014;2022-11-15T00:14:24;100238.88;;;9.94;100.00
62059;BME280;48017;51.064;7.014;2022-11-15T00:16:49;100247.25;;;9.99;100.00
62059;BME280;48017;51.064;7.014;2022-11-15T00:19:15;100245.53;;;9.88;100.00
62059;BME280;48017;51.064;7.014;2022-11-15T00:21:40;100248.69;;;10.13;100.00
62059;BME280;48017;51.064;7.014;2022-11-15T00:24:06;100244.44;;;10.00;100.00
62059;BME280;48017;51.064;7.014;2022-11-15T00:26:31;100245.84;;;9.95;100.00
62059;BME280;48017;51.064;7.014;2022-11-15T00:28:56;100250.03;;;9.97;100.00
62059;BME280;48017;51.064;7.014;2022-11-15T00:31:22;100251.66;;;9.89;100.00
62059;BME280;48017;51.064;7.014;2022-11-15T00:33:47;100251.41;;;9.92;100.00
62059;BME280;48017;51.064;7.014;2022-11-15T00:36:13;100249.38;;;10.15;100.00
62059;BME280;48017;51.064;7.014;2022-11-15T00:38:39;100244.66;;;10.18;100.00
62059;BME280;48017;51.064;7.014;2022-11-15T00:41:06;100252.75;;;10.17;100.00
62059;BME280;48017;51.064;7.014;2022-11-15T00:43:32;100244.00;;;10.26;100.00
62059;BME280;48017;51.064;7.014;2022-11-15T00:45:58;100237.19;;;10.33;100.00
62059;BME280;48017;51.064;7.014;2022-11-15T00:48:23;100240.69;;;10.33;100.00
62059;BME280;48017;51.064;7.014;2022-11-15T00:50:49;100240.94;;;10.30;100.00
62059;BME280;48017;51.064;7.014;2022-11-15T00:53:15;100239.13;;;10.31;100.00
62059;BME280;48017;51.064;7.014;2022-11-15T00:55:40;100237.59;;;10.38;100.00
62059;BME280;48017;51.064;7.014;2022-11-15T00:58:05;100244.59;;;10.49;100.00
62059;BME280;48017;51.064;7.014;2022-11-15T01:00:31;100234.41;;;10.44;100.00
62059;BME280;48017;51.064;7.014;2022-11-15T01:02:56;100242.25;;;10.65;100.00
62059;BME280;48017;51.064;7.014;2022-11-15T01:05:22;100227.44;;;10.62;100.00
62059;BME280;48017;51.064;7.014;2022-11-15T01:07:51;100229.13;;;10.73;100.00
62059;BME280;48017;51.064;7.014;2022-11-15T01:10:17;100233.47;;;10.64;100.00
62059;BME280;48017;51.064;7.014;2022-11-15T01:12:42;100229.00;;;10.55;100.00
62059;BME280;48017;51.064;7.014;2022-11-15T01:15:08;100232.31;;;10.57;100.00
62059;BME280;48017;51.064;7.014;2022-11-15T01:17:33;100230.91;;;10.73;100.00
62059;BME280;48017;51.064;7.014;2022-11-15T01:19:58;100228.00;;;10.66;100.00
62059;BME280;48017;51.064;7.014;2022-11-15T01:22:24;100221.72;;;10.57;100.00
62059;BME280;48017;51.064;7.014;2022-11-15T01:24:50;100220.91;;;10.66;100.00
62059;BME280;48017;51.064;7.014;2022-11-15T01:27:15;100230.66;;;10.66;100.00
62059;BME280;48017;51.064;7.014;2022-11-15T01:29:41;100225.91;;;10.70;100.00
62059;BME280;48017;51.064;7.014;2022-11-15T01:32:06;100223.69;;;10.84;100.00
62059;BME280;48017;51.064;7.014;2022-11-15T01:34:32;100216.56;;;10.75;100.00
62059;BME280;48017;51.064;7.014;2022-11-15T01:36:57;100221.44;;;10.80;100.00
62059;BME280;48017;51.064;7.014;2022-11-15T01:39:22;100223.09;;;10.61;100.00
62059;BME280;48017;51.064;7.014;2022-11-15T01:41:48;100214.75;;;10.66;100.00
62059;BME280;48017;51.064;7.014;2022-11-15T01:47:50;100214.47;;;10.59;100.00
62059;BME280;48017;51.064;7.014;2022-11-15T01:49:59;100220.31;;;10.73;100.00
62059;BME280;48017;51.064;7.014;2022-11-15T01:52:27;100220.34;;;10.63;100.00
62059;BME280;48017;51.064;7.014;2022-11-15T01:54:59;100216.97;;;10.71;100.00
62059;BME280;48017;51.064;7.014;2022-11-15T01:57:26;100204.69;;;10.70;100.00
62059;BME280;48017;51.064;7.014;2022-11-15T01:59:52;100204.69;;;10.70;100.00
62059;BME280;48017;51.064;7.014;2022-11-15T02:02:17;100205.00;;;10.66;100.00
62059;BME280;48017;51.064;7.014;2022-11-15T02:04:45;100199.69;;;10.86;100.00
62059;BME280;48017;51.064;7.014;2022-11-15T02:07:13;100201.91;;;10.71;100.00
62059;BME280;48017;51.064;7.014;2022-11-15T02:09:40;100193.41;;;10.77;100.00
62059;BME280;48017;51.064;7.014;2022-11-15T02:12:07;100186.69;;;10.83;100.00
62059;BME280;48017;51.064;7.014;2022-11-15T02:14:34;100180.44;;;10.74;100.00
62059;BME280;48017;51.064;7.014;2022-11-15T02:19:51;100172.16;;;10.87;100.00
62059;BME280;48017;51.064;7.014;2022-11-15T02:31:04;100172.00;;;10.98;100.00
62059;BME280;48017;51.064;7.014;2022-11-15T02:34:10;100167.53;;;11.08;100.00
62059;BME280;48017;51.064;7.014;2022-11-15T02:42:43;100173.16;;;10.86;100.00
62059;BME280;48017;51.064;7.014;2022-11-15T02:45:35;100162.81;;;10.83;100.00
62059;BME280;48017;51.064;7.014;2022-11-15T02:48:02;100155.28;;;10.88;100.00
62059;BME280;48017;51.064;7.014;2022-11-15T02:50:30;100154.72;;;10.94;100.00
62059;BME280;48017;51.064;7.014;2022-11-15T02:52:57;100151.47;;;11.00;100.00
62059;BME280;48017;51.064;7.014;2022-11-15T02:55:28;100152.47;;;10.99;100.00
62059;BME280;48017;51.064;7.014;2022-11-15T02:58:19;100152.31;;;11.01;100.00
62059;BME280;48017;51.064;7.014;2022-11-15T03:01:09;100147.63;;;10.85;100.00
62059;BME280;48017;51.064;7.014;2022-11-15T03:04:07;100147.19;;;10.80;100.00
62059;BME280;48017;51.064;7.014;2022-11-15T03:06:42;100141.47;;;10.94;100.00
62059;BME280;48017;51.064;7.014;2022-11-15T03:12:00;100141.13;;;11.07;100.00
62059;BME280;48017;51.064;7.014;2022-11-15T03:14:34;100142.16;;;10.86;100.00
62059;BME280;48017;51.064;7.014;2022-11-15T03:17:12;100137.09;;;11.03;100.00
62059;BME280;48017;51.064;7.014;2022-11-15T03:19:47;100143.81;;;10.97;100.00
62059;BME280;48017;51.064;7.014;2022-11-15T03:22:19;100138.22;;;11.00;100.00
62059;BME280;48017;51.064;7.014;2022-11-15T03:24:47;100147.41;;;11.15;100.00
62059;BME280;48017;51.064;7.014;2022-11-15T03:27:20;100147.56;;;11.04;100.00
62059;BME280;48017;51.064;7.014;2022-11-15T03:29:51;100144.63;;;11.07;100.00
62059;BME280;48017;51.064;7.014;2022-11-15T03:32:26;100150.94;;;10.96;100.00
62059;BME280;48017;51.064;7.014;2022-11-15T03:35:06;100141.97;;;11.07;100.00
62059;BME280;48017;51.064;7.014;2022-11-15T03:37:37;100133.06;;;10.89;100.00
62059;BME280;48017;51.064;7.014;2022-11-15T03:40:05;100142.28;;;10.94;100.00
62059;BME280;48017;51.064;7.014;2022-11-15T03:42:59;100139.94;;;11.29;100.00
62059;BME280;48017;51.064;7.014;2022-11-15T03:45:29;100138.41;;;11.26;100.00
62059;BME280;48017;51.064;7.014;2022-11-15T03:48:17;100132.34;;;11.06;100.00
62059;BME280;48017;51.064;7.014;2022-11-15T03:50:46;100130.53;;;11.07;100.00
62059;BME280;48017;51.064;7.014;2022-11-15T03:53:12;100128.97;;;11.14;100.00
62059;BME280;48017;51.064;7.014;2022-11-15T03:55:38;100128.28;;;11.02;100.00
62059;BME280;48017;51.064;7.014;2022-11-15T03:58:03;100129.56;;;10.98;100.00
62059;BME280;48017;51.064;7.014;2022-11-15T04:00:29;100129.00;;;11.04;100.00
62059;BME280;48017;51.064;7.014;2022-11-15T04:02:54;100129.69;;;11.06;100.00
62059;BME280;48017;51.064;7.014;2022-11-15T04:05:20;100130.06;;;11.11;100.00
62059;BME280;48017;51.064;7.014;2022-11-15T04:07:45;100128.81;;;11.15;100.00
62059;BME280;48017;51.064;7.014;2022-11-15T04:10:11;100126.06;;;11.07;100.00
62059;BME280;48017;51.064;7.014;2022-11-15T04:12:39;100126.19;;;11.06;100.00
62059;BME280;48017;51.064;7.014;2022-11-15T04:20:01;100124.22;;;11.17;100.00
62059;BME280;48017;51.064;7.014;2022-11-15T04:22:45;100124.66;;;11.03;100.00
62059;BME280;48017;51.064;7.014;2022-11-15T04:25:29;100124.78;;;11.11;100.00
62059;BME280;48017;51.064;7.014;2022-11-15T04:27:55;100122.72;;;11.05;100.00
62059;BME280;48017;51.064;7.014;2022-11-15T04:30:20;100117.50;;;11.13;100.00
62059;BME280;48017;51.064;7.014;2022-11-15T04:32:45;100122.16;;;11.39;100.00
62059;BME280;48017;51.064;7.014;2022-11-15T04:35:11;100106.13;;;11.31;100.00
62059;BME280;48017;51.064;7.014;2022-11-15T04:37:36;100105.34;;;11.20;100.00
62059;BME280;48017;51.064;7.014;2022-11-15T04:40:02;100114.50;;;11.36;100.00
62059;BME280;48017;51.064;7.014;2022-11-15T04:42:27;100111.19;;;11.24;100.00
62059;BME280;48017;51.064;7.014;2022-11-15T04:44:53;100113.84;;;11.24;100.00
62059;BME280;48017;51.064;7.014;2022-11-15T04:47:18;100107.78;;;11.32;100.00
62059;BME280;48017;51.064;7.014;2022-11-15T04:49:44;100116.59;;;11.32;100.00
62059;BME280;48017;51.064;7.014;2022-11-15T04:52:09;100114.81;;;11.23;100.00
62059;BME280;48017;51.064;7.014;2022-11-15T04:54:34;100115.06;;;11.30;100.00
62059;BME280;48017;51.064;7.014;2022-11-15T04:57:00;100114.88;;;11.41;100.00
62059;BME280;48017;51.064;7.014;2022-11-15T04:59:25;100110.88;;;11.37;100.00
62059;BME280;48017;51.064;7.014;2022-11-15T05:01:51;100116.06;;;11.29;100.00
62059;BME280;48017;51.064;7.014;2022-11-15T05:04:16;100107.41;;;11.27;100.00
62059;BME280;48017;51.064;7.014;2022-11-15T05:06:48;100116.84;;;11.39;100.00
62059;BME280;48017;51.064;7.014;2022-11-15T05:09:14;100116.44;;;11.34;100.00
62059;BME280;48017;51.064;7.014;2022-11-15T05:11:40;100116.16;;;11.37;100.00
62059;BME280;48017;51.064;7.014;2022-11-15T05:14:05;100121.75;;;11.34;100.00
62059;BME280;48017;51.064;7.014;2022-11-15T05:16:30;100122.63;;;11.34;100.00
62059;BME280;48017;51.064;7.014;2022-11-15T05:18:56;100121.44;;;11.46;100.00
62059;BME280;48017;51.064;7.014;2022-11-15T05:21:21;100126.47;;;11.40;100.00
62059;BME280;48017;51.064;7.014;2022-11-15T05:23:47;100123.69;;;11.41;100.00
62059;BME280;48017;51.064;7.014;2022-11-15T05:26:12;100120.53;;;11.28;100.00
62059;BME280;48017;51.064;7.014;2022-11-15T05:28:39;100111.63;;;11.19;100.00
62059;BME280;48017;51.064;7.014;2022-11-15T05:31:10;100111.31;;;11.22;100.00
62059;BME280;48017;51.064;7.014;2022-11-15T05:33:37;100117.19;;;11.26;100.00
62059;BME280;48017;51.064;7.014;2022-11-15T05:36:21;100118.03;;;11.27;100.00
62059;BME280;48017;51.064;7.014;2022-11-15T05:38:48;100113.25;;;11.30;100.00
62059;BME280;48017;51.064;7.014;2022-11-15T05:41:15;100111.44;;;11.31;100.00
62059;BME280;48017;51.064;7.014;2022-11-15T05:43:41;100121.63;;;11.35;100.00
62059;BME280;48017;51.064;7.014;2022-11-15T05:46:07;100118.53;;;11.40;100.00
62059;BME280;48017;51.064;7.014;2022-11-15T05:48:35;100114.19;;;11.39;100.00
62059;BME280;48017;51.064;7.014;2022-11-15T05:51:02;100119.97;;;11.34;100.00
62059;BME280;48017;51.064;7.014;2022-11-15T05:53:27;100123.81;;;11.40;100.00
62059;BME280;48017;51.064;7.014;2022-11-15T05:55:53;100117.16;;;11.36;100.00
62059;BME280;48017;51.064;7.014;2022-11-15T05:58:19;100120.78;;;11.35;100.00
62059;BME280;48017;51.064;7.014;2022-11-15T06:00:45;100117.72;;;11.30;100.00
62059;BME280;48017;51.064;7.014;2022-11-15T06:03:11;100113.59;;;11.17;100.00
62059;BME280;48017;51.064;7.014;2022-11-15T06:05:36;100112.47;;;11.20;100.00
62059;BME280;48017;51.064;7.014;2022-11-15T06:08:01;100112.59;;;11.18;100.00
62059;BME280;48017;51.064;7.014;2022-11-15T06:10:27;100117.22;;;11.16;100.00
62059;BME280;48017;51.064;7.014;2022-11-15T06:12:59;100118.66;;;11.01;100.00
62059;BME280;48017;51.064;7.014;2022-11-15T06:15:25;100118.66;;;11.01;100.00
62059;BME280;48017;51.064;7.014;2022-11-15T06:17:50;100128.19;;;10.94;100.00
62059;BME280;48017;51.064;7.014;2022-11-15T06:20:16;100129.88;;;10.95;100.00
62059;BME280;48017;51.064;7.014;2022-11-15T06:22:41;100131.81;;;10.93;100.00
62059;BME280;48017;51.064;7.014;2022-11-15T06:25:07;100142.84;;;10.88;100.00
62059;BME280;48017;51.064;7.014;2022-11-15T06:27:32;100146.63;;;10.95;100.00
62059;BME280;48017;51.064;7.014;2022-11-15T06:29:58;100146.84;;;11.02;100.00
62059;BME280;48017;51.064;7.014;2022-11-15T06:32:23;100152.75;;;10.96;100.00
62059;BME280;48017;51.064;7.014;2022-11-15T06:34:48;100153.16;;;10.91;100.00
62059;BME280;48017;51.064;7.014;2022-11-15T06:37:14;100155.00;;;10.81;100.00
62059;BME280;48017;51.064;7.014;2022-11-15T06:39:39;100154.75;;;10.75;100.00
62059;BME280;48017;51.064;7.014;2022-11-15T06:42:04;100159.34;;;10.73;100.00
62059;BME280;48017;51.064;7.014;2022-11-15T06:44:30;100163.25;;;10.68;100.00
62059;BME280;48017;51.064;7.014;2022-11-15T06:46:55;100162.72;;;10.65;100.00
62059;BME280;48017;51.064;7.014;2022-11-15T06:49:20;100163.94;;;10.61;100.00
62059;BME280;48017;51.064;7.014;2022-11-15T06:51:46;100156.84;;;10.61;100.00
62059;BME280;48017;51.064;7.014;2022-11-15T06:54:11;100156.28;;;10.58;100.00
62059;BME280;48017;51.064;7.014;2022-11-15T06:56:36;100161.88;;;10.55;100.00
62059;BME280;48017;51.064;7.014;2022-11-15T06:59:02;100171.91;;;10.51;100.00
62059;BME280;48017;51.064;7.014;2022-11-15T07:01:27;100170.38;;;10.58;100.00
62059;BME280;48017;51.064;7.014;2022-11-15T07:03:52;100175.00;;;10.56;100.00
62059;BME280;48017;51.064;7.014;2022-11-15T07:06:18;100172.06;;;10.59;100.00
62059;BME280;48017;51.064;7.014;2022-11-15T07:08:43;100167.88;;;10.47;100.00
62059;BME280;48017;51.064;7.014;2022-11-15T07:11:09;100179.59;;;10.54;100.00
62059;BME280;48017;51.064;7.014;2022-11-15T07:13:35;100184.31;;;10.51;100.00
62059;BME280;48017;51.064;7.014;2022-11-15T07:16:05;100186.72;;;10.54;100.00
62059;BME280;48017;51.064;7.014;2022-11-15T07:18:36;100186.72;;;10.54;100.00
62059;BME280;48017;51.064;7.014;2022-11-15T07:21:03;100192.16;;;10.43;100.00
62059;BME280;48017;51.064;7.014;2022-11-15T07:23:29;100198.41;;;10.42;100.00
62059;BME280;48017;51.064;7.014;2022-11-15T07:25:56;100205.13;;;10.55;100.00
62059;BME280;48017;51.064;7.014;2022-11-15T07:28:22;100204.69;;;10.50;100.00
62059;BME280;48017;51.064;7.014;2022-11-15T07:30:47;100205.13;;;10.55;100.00
62059;BME280;48017;51.064;7.014;2022-11-15T07:33:13;100203.03;;;10.59;100.00
62059;BME280;48017;51.064;7.014;2022-11-15T07:35:38;100208.88;;;10.62;100.00
62059;BME280;48017;51.064;7.014;2022-11-15T07:38:03;100209.44;;;10.66;100.00
62059;BME280;48017;51.064;7.014;2022-11-15T07:40:30;100210.56;;;10.73;100.00
62059;BME280;48017;51.064;7.014;2022-11-15T07:43:05;100213.47;;;10.80;100.00
62059;BME280;48017;51.064;7.014;2022-11-15T07:45:30;100217.66;;;10.82;100.00
62059;BME280;48017;51.064;7.014;2022-11-15T07:47:56;100219.06;;;10.77;100.00
62059;BME280;48017;51.064;7.014;2022-11-15T07:50:23;100213.06;;;10.94;100.00
62059;BME280;48017;51.064;7.014;2022-11-15T07:52:53;100218.38;;;10.94;100.00
62059;BME280;48017;51.064;7.014;2022-11-15T07:55:19;100217.63;;;11.21;100.00
62059;BME280;48017;51.064;7.014;2022-11-15T07:57:44;100226.16;;;11.24;100.00
62059;BME280;48017;51.064;7.014;2022-11-15T08:00:10;100222.22;;;11.19;100.00
62059;BME280;48017;51.064;7.014;2022-11-15T08:02:35;100215.38;;;11.26;100.00
62059;BME280;48017;51.064;7.014;2022-11-15T08:05:01;100217.47;;;11.22;100.00
62059;BME280;48017;51.064;7.014;2022-11-15T08:07:29;100216.75;;;11.30;99.62
62059;BME280;48017;51.064;7.014;2022-11-15T08:09:54;100204.81;;;11.07;100.00
62059;BME280;48017;51.064;7.014;2022-11-15T08:12:20;100216.94;;;11.09;100.00
62059;BME280;48017;51.064;7.014;2022-11-15T08:14:45;100220.41;;;11.19;99.96
62059;BME280;48017;51.064;7.014;2022-11-15T08:17:11;100218.06;;;11.16;100.00
62059;BME280;48017;51.064;7.014;2022-11-15T08:19:36;100213.31;;;11.01;100.00
62059;BME280;48017;51.064;7.014;2022-11-15T08:22:01;100214.44;;;10.98;100.00
62059;BME280;48017;51.064;7.014;2022-11-15T08:24:27;100211.50;;;11.01;100.00
62059;BME280;48017;51.064;7.014;2022-11-15T08:26:52;100214.13;;;11.20;99.64
62059;BME280;48017;51.064;7.014;2022-11-15T08:29:17;100218.75;;;11.09;99.49
62059;BME280;48017;51.064;7.014;2022-11-15T08:31:43;100217.06;;;11.17;98.95
62059;BME280;48017;51.064;7.014;2022-11-15T08:34:08;100211.06;;;11.25;98.61
62059;BME280;48017;51.064;7.014;2022-11-15T08:36:33;100210.50;;;11.21;98.36
62059;BME280;48017;51.064;7.014;2022-11-15T08:38:59;100206.97;;;11.31;96.54
62059;BME280;48017;51.064;7.014;2022-11-15T08:41:28;100205.34;;;11.20;97.27
62059;BME280;48017;51.064;7.014;2022-11-15T08:43:55;100198.72;;;11.34;96.96
62059;BME280;48017;51.064;7.014;2022-11-15T08:46:20;100202.63;;;11.39;95.75
62059;BME280;48017;51.064;7.014;2022-11-15T08:48:46;100200.97;;;11.29;95.87
62059;BME280;48017;51.064;7.014;2022-11-15T08:51:11;100195.72;;;11.56;94.68
62059;BME280;48017;51.064;7.014;2022-11-15T08:53:37;100200.97;;;12.03;91.56
62059;BME280;48017;51.064;7.014;2022-11-15T08:56:02;100193.88;;;12.21;89.67
62059;BME280;48017;51.064;7.014;2022-11-15T08:58:29;100190.53;;;12.73;87.42
62059;BME280;48017;51.064;7.014;2022-11-15T09:00:54;100182.78;;;12.61;88.05
62059;BME280;48017;51.064;7.014;2022-11-15T09:03:20;100179.66;;;13.10;84.82
62059;BME280;48017;51.064;7.014;2022-11-15T09:05:45;100173.72;;;12.72;86.17
62059;BME280;48017;51.064;7.014;2022-11-15T09:08:11;100180.97;;;12.62;86.00
62059;BME280;48017;51.064;7.014;2022-11-15T09:10:37;100176.72;;;12.51;85.45
62059;BME280;48017;51.064;7.014;2022-11-15T09:13:03;100170.66;;;12.85;84.54
62059;BME280;48017;51.064;7.014;2022-11-15T09:15:28;100172.81;;;12.46;83.94
62059;BME280;48017;51.064;7.014;2022-11-15T09:17:58;100172.03;;;12.89;82.99
62059;BME280;48017;51.064;7.014;2022-11-15T09:20:23;100172.53;;;13.10;82.63
62059;BME280;48017;51.064;7.014;2022-11-15T09:22:48;100172.63;;;12.57;83.30
62059;BME280;48017;51.064;7.014;2022-11-15T09:25:14;100177.00;;;12.30;83.70
62059;BME280;48017;51.064;7.014;2022-11-15T09:27:39;100178.88;;;12.91;81.80
62059;BME280;48017;51.064;7.014;2022-11-15T09:30:05;100170.53;;;13.12;79.33
62059;BME280;48017;51.064;7.014;2022-11-15T09:32:30;100175.91;;;12.77;80.26
62059;BME280;48017;51.064;7.014;2022-11-15T09:34:56;100169.78;;;13.20;79.01
62059;BME280;48017;51.064;7.014;2022-11-15T09:37:22;100162.25;;;12.89;80.70
62059;BME280;48017;51.064;7.014;2022-11-15T09:39:47;100165.91;;;12.53;82.43
62059;BME280;48017;51.064;7.014;2022-11-15T09:50:15;100149.44;;;12.67;80.62
62059;BME280;48017;51.064;7.014;2022-11-15T09:52:44;100137.19;;;13.00;79.08
62059;BME280;48017;51.064;7.014;2022-11-15T09:55:11;100139.22;;;13.06;80.05
62059;BME280;48017;51.064;7.014;2022-11-15T09:57:52;100124.34;;;12.69;78.19
62059;BME280;48017;51.064;7.014;2022-11-15T10:00:22;100118.63;;;13.08;77.22
62059;BME280;48017;51.064;7.014;2022-11-15T10:03:15;100112.88;;;12.95;76.99
62059;BME280;48017;51.064;7.014;2022-11-15T10:05:49;100115.34;;;12.88;76.89
62059;BME280;48017;51.064;7.014;2022-11-15T10:11:18;100115.47;;;12.61;76.28
62059;BME280;48017;51.064;7.014;2022-11-15T10:13:46;100092.50;;;13.12;75.24
62059;BME280;48017;51.064;7.014;2022-11-15T10:19:28;100087.84;;;12.80;74.68
62059;BME280;48017;51.064;7.014;2022-11-15T10:24:44;100082.47;;;12.97;73.72
62059;BME280;48017;51.064;7.014;2022-11-15T10:27:16;100079.09;;;12.87;74.25
62059;BME280;48017;51.064;7.014;2022-11-15T10:29:44;100073.50;;;12.98;73.02
62059;BME280;48017;51.064;7.014;2022-11-15T10:32:12;100086.94;;;13.23;72.51
62059;BME280;48017;51.064;7.014;2022-11-15T10:34:37;100075.50;;;13.05;71.69
62059;BME280;48017;51.064;7.014;2022-11-15T10:37:03;100083.19;;;13.42;69.19
62059;BME280;48017;51.064;7.014;2022-11-15T10:39:29;100095.25;;;13.20;67.71
62059;BME280;48017;51.064;7.014;2022-11-15T10:41:55;100064.66;;;13.74;66.99
62059;BME280;48017;51.064;7.014;2022-11-15T10:44:31;100055.00;;;13.81;65.92
62059;BME280;48017;51.064;7.014;2022-11-15T10:49:26;100061.88;;;14.33;64.31
62059;BME280;48017;51.064;7.014;2022-11-15T10:54:40;100056.84;;;14.70;62.47
62059;BME280;48017;51.064;7.014;2022-11-15T10:57:12;100051.22;;;14.25;62.80
62059;BME280;48017;51.064;7.014;2022-11-15T10:59:42;100045.16;;;14.88;61.28
62059;BME280;48017;51.064;7.014;2022-11-15T11:02:45;100048.06;;;14.46;57.58
62059;BME280;48017;51.064;7.014;2022-11-15T11:05:36;100044.56;;;14.53;54.34
62059;BME280;48017;51.064;7.014;2022-11-15T11:08:03;100034.19;;;14.66;54.15
62059;BME280;48017;51.064;7.014;2022-11-15T11:10:29;100024.81;;;14.79;52.59
62059;BME280;48017;51.064;7.014;2022-11-15T11:12:55;100038.50;;;14.84;52.05
62059;BME280;48017;51.064;7.014;2022-11-15T11:15:22;100044.88;;;14.50;52.57
62059;BME280;48017;51.064;7.014;2022-11-15T11:20:37;100031.53;;;14.75;50.26
62059;BME280;48017;51.064;7.014;2022-11-15T11:23:33;100032.84;;;14.79;49.94
62059;BME280;48017;51.064;7.014;2022-11-15T11:26:32;100024.00;;;15.25;49.12
62059;BME280;48017;51.064;7.014;2022-11-15T11:32:03;100017.53;;;15.12;49.95
62059;BME280;48017;51.064;7.014;2022-11-15T11:37:21;100006.97;;;14.79;50.82
62059;BME280;48017;51.064;7.014;2022-11-15T11:47:40;99998.38;;;14.53;52.96
62059;BME280;48017;51.064;7.014;2022-11-15T11:50:19;100002.91;;;14.52;52.97
62059;BME280;48017;51.064;7.014;2022-11-15T11:53:14;100010.66;;;14.78;52.12
62059;BME280;48017;51.064;7.014;2022-11-15T11:55:51;99993.16;;;14.76;52.27
62059;BME280;48017;51.064;7.014;2022-11-15T11:58:26;99998.72;;;14.33;53.80
62059;BME280;48017;51.064;7.014;2022-11-15T12:00:59;99997.06;;;14.32;53.72
62059;BME280;48017;51.064;7.014;2022-11-15T12:03:38;100002.03;;;14.44;53.42
62059;BME280;48017;51.064;7.014;2022-11-15T12:06:35;100002.72;;;14.46;53.64
62059;BME280;48017;51.064;7.014;2022-11-15T12:09:23;99997.53;;;14.44;53.31
62059;BME280;48017;51.064;7.014;2022-11-15T12:12:25;99984.41;;;14.90;52.51
62059;BME280;48017;51.064;7.014;2022-11-15T12:17:36;99981.03;;;15.04;52.33
62059;BME280;48017;51.064;7.014;2022-11-15T12:20:22;99960.25;;;15.53;51.65
62059;BME280;48017;51.064;7.014;2022-11-15T12:25:53;99957.59;;;15.76;51.37
62059;BME280;48017;51.064;7.014;2022-11-15T12:28:40;99957.13;;;15.42;52.15
62059;BME280;48017;51.064;7.014;2022-11-15T12:33:46;99941.06;;;14.88;54.77
62059;BME280;48017;51.064;7.014;2022-11-15T12:36:39;99933.53;;;14.91;54.75
62059;BME280;48017;51.064;7.014;2022-11-15T12:39:10;99927.28;;;15.07;54.94
62059;BME280;48017;51.064;7.014;2022-11-15T12:41:38;99920.19;;;14.91;55.12
62059;BME280;48017;51.064;7.014;2022-11-15T12:44:04;99924.78;;;14.75;55.27
62059;BME280;48017;51.064;7.014;2022-11-15T13:17:49;99841.97;;;14.12;62.75
62059;BME280;48017;51.064;7.014;2022-11-15T13:23:13;99854.19;;;13.91;64.33
62059;BME280;48017;51.064;7.014;2022-11-15T13:28:32;99842.50;;;14.00;64.95
62059;BME280;48017;51.064;7.014;2022-11-15T13:31:13;99842.34;;;13.77;66.29
62059;BME280;48017;51.064;7.014;2022-11-15T13:33:42;99841.50;;;13.93;66.26
62059;BME280;48017;51.064;7.014;2022-11-15T13:36:14;99844.34;;;13.91;66.49
62059;BME280;48017;51.064;7.014;2022-11-15T13:38:41;99835.66;;;13.89;66.35
62059;BME280;48017;51.064;7.014;2022-11-15T13:41:20;99819.91;;;13.63;68.40
62059;BME280;48017;51.064;7.014;2022-11-15T13:43:47;99823.41;;;13.64;68.71
62059;BME280;48017;51.064;7.014;2022-11-15T13:46:17;99817.41;;;13.53;68.74
62059;BME280;48017;51.064;7.014;2022-11-15T13:48:44;99822.75;;;13.53;68.41
62059;BME280;48017;51.064;7.014;2022-11-15T13:53:55;99801.75;;;13.75;68.22
62059;BME280;48017;51.064;7.014;2022-11-15T13:56:21;99802.72;;;13.90;68.20
62059;BME280;48017;51.064;7.014;2022-11-15T13:58:47;99807.94;;;13.59;69.48
62059;BME280;48017;51.064;7.014;2022-11-15T14:01:18;99801.44;;;13.62;69.39
62059;BME280;48017;51.064;7.014;2022-11-15T14:03:54;99791.44;;;13.72;68.25
62059;BME280;48017;51.064;7.014;2022-11-15T14:06:23;99793.91;;;13.73;69.02
62059;BME280;48017;51.064;7.014;2022-11-15T14:11:30;99779.47;;;13.51;70.20
62059;BME280;48017;51.064;7.014;2022-11-15T14:14:13;99776.47;;;13.54;70.44
62059;BME280;48017;51.064;7.014;2022-11-15T14:16:45;99772.97;;;13.54;69.64
62059;BME280;48017;51.064;7.014;2022-11-15T14:19:34;99761.78;;;13.67;69.69
62059;BME280;48017;51.064;7.014;2022-11-15T14:24:33;99761.66;;;13.60;70.14
62059;BME280;48017;51.064;7.014;2022-11-15T14:27:19;99756.50;;;13.50;70.73
62059;BME280;48017;51.064;7.014;2022-11-15T14:29:44;99741.00;;;13.62;70.46
62059;BME280;48017;51.064;7.014;2022-11-15T14:32:17;99743.50;;;13.64;70.35
62059;BME280;48017;51.064;7.014;2022-11-15T14:34:43;99738.53;;;13.52;70.93
62059;BME280;48017;51.064;7.014;2022-11-15T14:39:48;99727.22;;;13.50;71.16
62059;BME280;48017;51.064;7.014;2022-11-15T14:42:14;99722.09;;;13.41;71.86
62059;BME280;48017;51.064;7.014;2022-11-15T14:44:39;99727.91;;;13.36;72.05
62059;BME280;48017;51.064;7.014;2022-11-15T14:47:05;99721.06;;;13.42;71.77
62059;BME280;48017;51.064;7.014;2022-11-15T14:49:30;99724.22;;;13.45;72.07
62059;BME280;48017;51.064;7.014;2022-11-15T14:51:55;99718.59;;;13.40;71.87
62059;BME280;48017;51.064;7.014;2022-11-15T14:54:21;99716.75;;;13.49;71.84
62059;BME280;48017;51.064;7.014;2022-11-15T14:56:46;99710.59;;;13.40;72.06
62059;BME280;48017;51.064;7.014;2022-11-15T14:59:11;99714.94;;;13.41;72.30